Time;durP1;ratioP1;P1;durP2;ratioP2;P2;SDS_P1;SDS_P2;PMS_P1;PMS_P2;Temp;Humidity;BMP_temperature;BMP_pressure;BME280_temperature;BME280_humidity;BME280_pressure;Samples;Min_cycle;Max_cycle;Signal;HPM_P1;HPM_P2
2021/07/18 00:01:31;;;;;;;12.23;4.82;;;;;;;17.08;98.99;100974.09;5018561;28;20053;-70
2021/07/18 00:03:58;;;;;;;9.57;2.55;;;;;;;17.02;98.32;100961.09;5017396;28;20132;-70
2021/07/18 00:06:42;;;;;;;6.40;2.53;;;;;;;17.05;100.00;100969.81;5017525;28;20064;-70
2021/07/18 00:09:09;;;;;;;5.32;2.67;;;;;;;17.06;100.00;100967.97;5018878;28;20049;-70
2021/07/18 00:11:36;;;;;;;4.55;2.42;;;;;;;16.95;99.01;100966.91;5018780;28;20087;-70
2021/07/18 00:14:04;;;;;;;5.70;2.58;;;;;;;16.99;100.00;100961.31;5018890;28;20073;-70
2021/07/18 00:16:32;;;;;;;9.07;3.10;;;;;;;16.95;100.00;100958.81;5018548;28;20081;-70
2021/07/18 00:18:59;;;;;;;5.05;2.70;;;;;;;16.95;100.00;100956.13;5018421;28;20096;-70
2021/07/18 00:21:25;;;;;;;6.05;2.60;;;;;;;16.91;100.00;100957.34;5034023;28;20064;-72
2021/07/18 00:23:53;;;;;;;6.95;2.70;;;;;;;16.91;99.67;100959.16;5050429;28;20176;-72
2021/07/18 00:26:21;;;;;;;8.98;2.60;;;;;;;16.87;99.98;100966.63;5018549;28;20054;-70
2021/07/18 00:28:48;;;;;;;4.70;2.70;;;;;;;16.84;99.68;100966.88;5018413;28;20422;-71
2021/07/18 00:31:14;;;;;;;6.28;2.95;;;;;;;16.75;99.80;100962.16;5018331;28;20054;-71
2021/07/18 00:33:41;;;;;;;4.43;2.70;;;;;;;16.72;100.00;100968.63;5018377;28;20077;-70
2021/07/18 00:36:08;;;;;;;5.53;2.70;;;;;;;16.69;100.00;100958.94;5018301;28;20050;-71
2021/07/18 00:38:34;;;;;;;6.97;2.47;;;;;;;16.66;100.00;100959.16;5050013;28;20084;-70
2021/07/18 00:41:01;;;;;;;4.10;2.60;;;;;;;16.53;100.00;100964.63;5018270;28;20057;-73
2021/07/18 00:43:28;;;;;;;4.95;2.42;;;;;;;16.50;100.00;100958.59;5049791;28;20061;-73
2021/07/18 00:45:59;;;;;;;5.05;3.20;;;;;;;16.43;100.00;100959.03;5017750;28;20387;-72
2021/07/18 00:48:29;;;;;;;4.68;3.05;;;;;;;16.39;100.00;100954.84;5018253;28;20111;-70
2021/07/18 00:50:58;;;;;;;5.10;2.90;;;;;;;16.37;100.00;100962.19;5018048;28;20367;-70
2021/07/18 00:53:25;;;;;;;5.82;2.63;;;;;;;16.34;100.00;100956.16;5017797;28;20436;-69
2021/07/18 00:55:53;;;;;;;8.95;2.90;;;;;;;16.34;100.00;100959.69;5016798;28;20161;-69
2021/07/18 00:58:21;;;;;;;6.88;2.53;;;;;;;16.31;100.00;100959.94;5017662;28;20054;-70
2021/07/18 01:00:48;;;;;;;5.85;2.72;;;;;;;16.28;100.00;100949.38;5016870;28;20054;-70
2021/07/18 01:03:16;;;;;;;4.68;2.80;;;;;;;16.23;100.00;100951.56;5017987;28;20046;-69
2021/07/18 01:05:42;;;;;;;8.77;3.20;;;;;;;16.22;100.00;100952.50;5017620;28;20057;-69
2021/07/18 01:08:10;;;;;;;5.72;2.45;;;;;;;16.11;100.00;100940.69;5017546;28;20054;-71
2021/07/18 01:10:38;;;;;;;5.78;2.75;;;;;;;16.08;100.00;100948.97;5017738;28;20123;-71
2021/07/18 01:13:05;;;;;;;8.07;2.97;;;;;;;16.07;100.00;100959.88;5048993;28;20046;-71
2021/07/18 01:15:38;;;;;;;4.25;2.60;;;;;;;16.03;100.00;100961.94;5017639;28;20058;-70
2021/07/18 01:18:07;;;;;;;4.70;2.45;;;;;;;15.96;100.00;100945.34;5017508;28;20060;-72
2021/07/18 01:20:34;;;;;;;9.50;2.60;;;;;;;15.97;100.00;100947.06;5016508;28;20046;-71
2021/07/18 01:23:02;;;;;;;6.45;2.80;;;;;;;15.95;100.00;100945.47;5017268;28;20073;-71
2021/07/18 01:25:28;;;;;;;3.78;2.50;;;;;;;15.89;100.00;100950.28;5017432;28;20053;-71
2021/07/18 01:27:55;;;;;;;3.58;2.35;;;;;;;15.87;100.00;100952.19;5017066;28;20080;-71
2021/07/18 01:30:22;;;;;;;4.80;2.20;;;;;;;15.80;100.00;100945.53;5016343;28;20107;-72
2021/07/18 01:32:49;;;;;;;7.35;2.97;;;;;;;15.75;100.00;100955.78;5016964;28;20042;-71
2021/07/18 01:35:15;;;;;;;3.33;2.53;;;;;;;15.73;100.00;100952.31;5016975;28;20053;-72
2021/07/18 01:37:42;;;;;;;10.65;2.90;;;;;;;15.66;100.00;100938.44;5017144;28;20046;-71
2021/07/18 01:40:10;;;;;;;4.72;3.00;;;;;;;15.67;100.00;100941.97;5017164;28;20054;-71
2021/07/18 01:42:40;;;;;;;5.72;2.67;;;;;;;15.68;100.00;100941.03;5016835;28;20061;-71
2021/07/18 01:45:07;;;;;;;5.07;2.78;;;;;;;15.65;100.00;100939.41;5017260;28;20049;-71
2021/07/18 01:47:34;;;;;;;5.90;2.70;;;;;;;15.61;100.00;100945.97;4999347;28;20140;-71
2021/07/18 01:50:01;;;;;;;6.03;2.83;;;;;;;15.60;100.00;100947.78;5016845;28;20138;-71
2021/07/18 01:52:28;;;;;;;5.97;2.80;;;;;;;15.60;100.00;100944.25;5016503;28;20379;-71
2021/07/18 01:54:55;;;;;;;7.03;2.75;;;;;;;15.52;100.00;100942.09;5016983;28;20065;-71
2021/07/18 01:57:21;;;;;;;5.82;3.20;;;;;;;15.47;100.00;100941.53;5016732;28;20131;-71
2021/07/18 01:59:48;;;;;;;8.35;3.05;;;;;;;15.50;100.00;100940.47;5016767;28;20049;-72
2021/07/18 02:02:15;;;;;;;7.38;3.00;;;;;;;15.47;100.00;100938.84;5016554;28;20088;-71
2021/07/18 02:04:42;;;;;;;4.65;3.05;;;;;;;15.48;100.00;100945.97;5016506;28;20084;-71
2021/07/18 02:07:08;;;;;;;4.97;2.90;;;;;;;15.44;100.00;100944.44;5016875;28;20100;-71
2021/07/18 02:09:36;;;;;;;5.72;3.13;;;;;;;15.39;100.00;100939.41;5015790;28;20057;-71
2021/07/18 02:12:07;;;;;;;9.75;3.40;;;;;;;15.30;100.00;100938.19;5016524;28;20050;-70
2021/07/18 02:14:34;;;;;;;;;;;;;;;15.31;100.00;100939.91;5048497;28;20054;-70
2021/07/18 02:17:01;;;;;;;9.15;3.40;;;;;;;15.30;100.00;100931.94;5016452;28;20293;-69
2021/07/18 02:19:29;;;;;;;6.20;3.08;;;;;;;15.28;100.00;100937.44;5016373;28;20096;-70
2021/07/18 02:21:58;;;;;;;5.32;3.08;;;;;;;15.25;100.00;100943.03;5016116;28;20053;-70
2021/07/18 02:24:25;;;;;;;4.22;3.05;;;;;;;15.25;100.00;100942.19;5016517;28;20149;-70
2021/07/18 02:26:53;;;;;;;6.65;3.47;;;;;;;15.23;100.00;100942.28;5016017;28;20089;-70
2021/07/18 02:29:20;;;;;;;3.60;3.10;;;;;;;15.18;100.00;100933.66;5016717;28;20054;-71
2021/07/18 02:31:47;;;;;;;7.80;3.10;;;;;;;15.22;100.00;100945.94;5048013;28;20088;-70
2021/07/18 02:34:13;;;;;;;5.75;3.42;;;;;;;15.21;100.00;100944.22;5015909;28;20429;-68
2021/07/18 02:36:40;;;;;;;6.28;3.42;;;;;;;15.18;100.00;100944.41;5016383;28;20058;-70
2021/07/18 02:39:07;;;;;;;4.35;3.35;;;;;;;15.14;100.00;100940.22;5016348;28;20053;-69
2021/07/18 02:41:36;;;;;;;5.95;3.28;;;;;;;15.10;100.00;100939.56;5014950;28;20436;-70
2021/07/18 02:44:06;;;;;;;7.78;3.70;;;;;;;15.05;100.00;100931.78;5015953;28;20049;-70
2021/07/18 02:46:34;;;;;;;7.60;3.80;;;;;;;15.03;100.00;100941.81;5030903;28;20057;-69
2021/07/18 02:49:02;;;;;;;5.68;4.13;;;;;;;15.04;100.00;100935.44;5016016;28;20054;-70
2021/07/18 02:51:28;;;;;;;8.55;3.83;;;;;;;14.99;100.00;100944.81;5015937;28;20109;-69
2021/07/18 02:53:55;;;;;;;7.72;4.43;;;;;;;14.95;100.00;100944.16;5015632;28;20076;-70
2021/07/18 02:56:22;;;;;;;9.85;4.30;;;;;;;14.86;100.00;100947.47;5015819;28;20432;-69
2021/07/18 02:58:50;;;;;;;8.40;4.18;;;;;;;14.90;100.00;100943.59;5015697;28;20096;-70
2021/07/18 03:01:16;;;;;;;7.68;3.67;;;;;;;14.87;100.00;100936.59;5014432;28;20428;-69
2021/07/18 03:03:43;;;;;;;6.90;3.85;;;;;;;14.89;100.00;100945.44;5031068;28;20129;-70
2021/07/18 03:06:10;;;;;;;7.53;4.03;;;;;;;14.76;100.00;100914.97;5015533;28;20391;-70
2021/07/18 03:08:38;;;;;;;8.80;4.75;;;;;;;14.87;100.00;100935.75;5015602;28;20133;-69
2021/07/18 03:11:06;;;;;;;7.50;3.70;;;;;;;14.83;100.00;100937.78;5015682;28;20352;-69
2021/07/18 03:13:33;;;;;;;6.07;3.80;;;;;;;14.75;100.00;100930.22;5014669;28;20096;-68
2021/07/18 03:16:00;;;;;;;10.68;4.00;;;;;;;14.77;100.00;100935.50;5014356;28;20061;-70
2021/07/18 03:18:26;;;;;;;9.23;4.50;;;;;;;14.75;100.00;100937.41;5015632;28;20080;-70
2021/07/18 03:20:53;;;;;;;8.35;4.18;;;;;;;14.73;100.00;100929.44;5047553;28;20057;-69
2021/07/18 03:23:20;;;;;;;5.85;3.97;;;;;;;14.73;100.00;100924.06;5015702;28;20088;-70
2021/07/18 03:25:46;;;;;;;5.70;4.20;;;;;;;14.66;100.00;100926.28;5051676;28;20103;-70
2021/07/18 03:28:13;;;;;;;7.30;4.28;;;;;;;14.51;100.00;100903.97;5019560;28;20061;-70
2021/07/18 03:30:39;;;;;;;5.90;4.18;;;;;;;14.63;100.00;100923.81;5019687;28;20050;-70
2021/07/18 03:33:06;;;;;;;5.68;4.03;;;;;;;14.58;100.00;100919.69;5019563;28;20049;-70
2021/07/18 03:35:33;;;;;;;6.57;4.47;;;;;;;14.53;100.00;100907.44;5019329;28;20049;-70
2021/07/18 03:38:00;;;;;;;7.07;4.40;;;;;;;14.60;100.00;100924.00;5019469;28;20053;-70
2021/07/18 03:40:28;;;;;;;11.70;5.03;;;;;;;14.58;100.00;100914.31;5019353;28;20049;-70
2021/07/18 03:42:56;;;;;;;6.93;4.38;;;;;;;14.59;100.00;100921.44;5019010;28;20439;-70
2021/07/18 03:45:23;;;;;;;7.45;4.43;;;;;;;14.56;100.00;100921.59;5019640;28;20077;-70
2021/07/18 03:47:49;;;;;;;5.88;4.15;;;;;;;14.59;100.00;100921.44;5018787;28;20054;-70
2021/07/18 03:50:16;;;;;;;8.10;4.40;;;;;;;14.58;100.00;100922.38;5019136;28;20054;-69
2021/07/18 03:52:43;;;;;;;7.47;4.35;;;;;;;14.59;100.00;100934.84;5019320;28;20052;-69
2021/07/18 03:55:12;;;;;;;8.20;4.88;;;;;;;14.62;100.00;100927.47;5018781;28;20057;-70
2021/07/18 03:57:39;;;;;;;7.40;4.68;;;;;;;14.61;100.00;100931.06;5019218;28;20050;-70
2021/07/18 04:00:06;;;;;;;8.23;4.53;;;;;;;14.59;100.00;100927.63;5018762;28;20112;-70
2021/07/18 04:02:33;;;;;;;8.75;4.43;;;;;;;14.59;100.00;100926.78;5018836;28;20427;-69
2021/07/18 04:05:00;;;;;;;9.27;4.22;;;;;;;14.53;100.00;100928.91;5019018;28;20339;-70
2021/07/18 04:07:32;;;;;;;10.68;5.03;;;;;;;14.57;100.00;100934.06;5049437;28;20053;-68
2021/07/18 04:10:00;;;;;;;7.20;4.60;;;;;;;14.52;100.00;100924.50;5018855;28;20049;-69
2021/07/18 04:12:27;;;;;;;7.03;4.50;;;;;;;14.54;100.00;100935.13;5018841;28;20054;-70
2021/07/18 04:14:55;;;;;;;7.00;4.45;;;;;;;14.52;100.00;100931.69;5018517;28;20493;-69
2021/07/18 04:17:22;;;;;;;6.78;4.88;;;;;;;14.52;100.00;100927.19;5018655;28;20465;-70
2021/07/18 04:19:49;;;;;;;6.93;4.93;;;;;;;14.57;100.00;100932.25;5018447;28;20064;-69
2021/07/18 04:22:16;;;;;;;8.75;4.50;;;;;;;14.55;100.00;100930.63;5018829;28;20423;-70
2021/07/18 04:24:43;;;;;;;5.75;4.63;;;;;;;14.57;100.00;100929.56;5018307;28;20054;-70
2021/07/18 04:27:09;;;;;;;6.30;4.70;;;;;;;14.55;100.00;100927.94;5018350;28;20501;-70
2021/07/18 04:29:36;;;;;;;10.98;5.00;;;;;;;14.54;100.00;100929.75;5018532;28;20391;-70
2021/07/18 04:32:03;;;;;;;9.00;5.20;;;;;;;14.53;100.00;100920.84;5018326;28;20431;-69
2021/07/18 04:34:31;;;;;;;8.20;5.03;;;;;;;14.62;100.00;100926.59;5018086;28;20053;-70
2021/07/18 04:36:58;;;;;;;7.30;4.65;;;;;;;14.61;100.00;100927.56;5018478;28;20050;-70
2021/07/18 04:39:26;;;;;;;7.50;4.78;;;;;;;14.56;100.00;100926.97;5018056;28;20054;-70
2021/07/18 04:41:52;;;;;;;8.02;4.53;;;;;;;14.60;100.00;100933.88;5018363;28;20100;-71
2021/07/18 04:44:19;;;;;;;9.82;4.78;;;;;;;14.61;100.00;100939.13;5017881;28;20058;-70
2021/07/18 04:46:46;;;;;;;7.18;4.90;;;;;;;14.66;100.00;100941.56;5018075;28;20057;-70
2021/07/18 04:49:13;;;;;;;10.95;5.32;;;;;;;14.69;100.00;100948.50;5017885;28;20080;-70
2021/07/18 04:51:39;;;;;;;6.07;4.68;;;;;;;14.73;100.00;100942.88;5050001;28;20054;-70
2021/07/18 04:54:10;;;;;;;10.68;4.93;;;;;;;14.75;100.00;100940.09;5018081;28;20129;-70
2021/07/18 04:56:37;;;;;;;6.68;4.82;;;;;;;14.80;100.00;100940.66;5018180;28;20124;-70
2021/07/18 04:59:03;;;;;;;7.45;4.60;;;;;;;14.84;100.00;100935.94;5049558;28;20498;-69
2021/07/18 05:01:30;;;;;;;10.05;4.43;;;;;;;14.87;100.00;100946.50;5017830;28;20100;-70
2021/07/18 05:03:57;;;;;;;8.63;4.72;;;;;;;14.98;100.00;100951.16;5018426;28;20045;-70
2021/07/18 05:06:23;;;;;;;8.93;4.80;;;;;;;15.00;100.00;100950.09;5018027;28;20325;-70
2021/07/18 05:08:50;;;;;;;9.27;5.00;;;;;;;15.02;100.00;100949.97;5018119;28;20062;-69
2021/07/18 05:11:19;;;;;;;7.50;4.65;;;;;;;15.01;100.00;100943.75;5017446;28;20076;-68
2021/07/18 05:13:52;;;;;;;10.30;4.93;;;;;;;15.10;100.00;100946.75;5048730;28;20050;-69
2021/07/18 05:16:19;;;;;;;7.28;4.93;;;;;;;15.06;100.00;100933.53;5017722;28;20306;-74
2021/07/18 05:18:47;;;;;;;7.20;5.20;;;;;;;15.15;100.00;100936.56;5016952;28;20359;-76
2021/07/18 05:21:14;;;;;;;7.97;5.05;;;;;;;15.20;100.00;100946.03;5016934;28;20112;-71
2021/07/18 05:23:41;;;;;;;10.32;6.38;;;;;;;15.30;100.00;100948.94;5017112;28;20057;-70
2021/07/18 05:26:07;;;;;;;10.48;7.07;;;;;;;15.37;100.00;100938.66;5016661;28;20120;-71
2021/07/18 05:28:34;;;;;;;9.88;6.80;;;;;;;15.46;100.00;100947.88;5016956;28;20100;-71
2021/07/18 05:31:02;;;;;;;10.05;7.85;;;;;;;15.56;100.00;100954.38;5016971;28;20054;-73
2021/07/18 05:33:29;;;;;;;9.45;7.05;;;;;;;15.64;100.00;100955.66;5016930;28;20313;-73
2021/07/18 05:35:56;;;;;;;11.35;7.40;;;;;;;15.67;100.00;100952.75;5016987;28;20100;-72
2021/07/18 05:38:24;;;;;;;12.63;8.55;;;;;;;15.65;100.00;100957.38;5016602;28;20061;-71
2021/07/18 05:40:58;;;;;;;12.82;7.15;;;;;;;15.72;100.00;100953.28;5015077;28;20526;-70
2021/07/18 05:43:24;;;;;;;12.45;8.00;;;;;;;15.72;100.00;100950.59;5016640;28;20037;-70
2021/07/18 05:45:51;;;;;;;13.05;8.40;;;;;;;15.81;100.00;100963.44;5016332;28;20042;-71
2021/07/18 05:48:23;;;;;;;28.85;14.10;;;;;;;15.80;100.00;100958.97;5015880;28;20046;-69
2021/07/18 05:50:53;;;;;;;23.02;12.95;;;;;;;15.82;100.00;100951.69;5011376;28;20100;-69
2021/07/18 05:53:20;;;;;;;23.10;12.50;;;;;;;15.94;100.00;100957.19;5016411;28;20056;-70
2021/07/18 05:55:47;;;;;;;22.10;11.90;;;;;;;15.99;100.00;100960.41;5016458;28;20076;-70
2021/07/18 05:58:13;;;;;;;24.05;12.00;;;;;;;16.03;100.00;100959.22;5016573;28;20053;-68
2021/07/18 06:00:40;;;;;;;23.25;13.05;;;;;;;16.12;100.00;100955.03;5016075;28;20474;-69
2021/07/18 06:03:08;;;;;;;27.92;13.57;;;;;;;16.10;100.00;100963.22;4998675;28;20046;-72
2021/07/18 06:05:35;;;;;;;27.70;13.30;;;;;;;16.03;100.00;100964.63;5016075;28;20046;-74
2021/07/18 06:08:03;;;;;;;25.77;14.23;;;;;;;16.00;100.00;100963.00;5014945;28;20058;-72
2021/07/18 06:10:31;;;;;;;25.70;14.27;;;;;;;16.02;100.00;100960.22;5031200;28;20157;-72
2021/07/18 06:13:01;;;;;;;28.08;14.80;;;;;;;16.02;100.00;100954.81;5016050;28;20049;-72
2021/07/18 06:15:28;;;;;;;27.40;14.05;;;;;;;16.09;100.00;100963.31;5011299;28;20042;-72
2021/07/18 06:17:57;;;;;;;27.27;12.88;;;;;;;16.23;100.00;100962.34;5015839;28;20549;-73
2021/07/18 06:20:28;;;;;;;23.98;13.80;;;;;;;16.23;100.00;100962.34;5010169;28;20061;-73
2021/07/18 06:22:54;;;;;;;32.15;13.63;;;;;;;16.27;100.00;100963.81;5015704;28;20045;-74
2021/07/18 06:25:24;;;;;;;22.00;13.00;;;;;;;16.32;100.00;100967.03;5014509;28;20104;-72
2021/07/18 06:27:51;;;;;;;22.73;12.23;;;;;;;16.33;100.00;100965.22;5015817;28;20069;-73
2021/07/18 06:30:18;;;;;;;19.85;12.48;;;;;;;16.40;100.00;100977.28;5015761;28;20455;-72
2021/07/18 06:32:45;;;;;;;21.77;13.13;;;;;;;16.43;100.00;100975.22;5016048;28;20054;-69
2021/07/18 06:35:13;;;;;;;22.85;13.25;;;;;;;16.50;100.00;100972.06;5015844;28;20105;-72
2021/07/18 06:37:41;;;;;;;17.13;12.68;;;;;;;16.52;100.00;100965.56;5016027;28;20058;-71
2021/07/18 06:40:10;;;;;;;21.58;13.15;;;;;;;16.50;100.00;100969.38;5010709;28;20436;-71
2021/07/18 06:42:36;;;;;;;21.63;12.82;;;;;;;16.54;100.00;100968.16;5015436;28;20042;-72
2021/07/18 06:45:08;;;;;;;20.98;12.95;;;;;;;16.52;100.00;100967.41;5016148;28;20049;-70
2021/07/18 06:47:35;;;;;;;19.35;12.95;;;;;;;16.59;100.00;100981.28;5016228;28;20058;-71
2021/07/18 06:50:02;;;;;;;22.02;13.30;;;;;;;16.64;100.00;100976.44;5016066;28;20116;-71
2021/07/18 06:52:29;;;;;;;23.23;13.52;;;;;;;16.66;100.00;100975.34;5014861;28;20359;-71
2021/07/18 06:54:55;;;;;;;26.42;13.82;;;;;;;16.69;100.00;100977.78;5047407;28;20482;-71
2021/07/18 06:57:23;;;;;;;20.60;12.88;;;;;;;16.72;100.00;100990.19;5015773;28;20053;-70
2021/07/18 06:59:50;;;;;;;23.98;13.05;;;;;;;16.75;100.00;100981.03;5015076;28;20057;-70
2021/07/18 07:02:17;;;;;;;22.08;12.98;;;;;;;16.83;100.00;100984.88;5015619;28;20060;-71
2021/07/18 07:04:46;;;;;;;21.23;12.15;;;;;;;16.90;100.00;100989.81;5015600;28;20144;-73
2021/07/18 07:07:13;;;;;;;22.17;12.18;;;;;;;17.03;100.00;100985.25;5015684;28;20061;-71
2021/07/18 07:09:40;;;;;;;20.98;11.25;;;;;;;17.05;100.00;100985.13;5015747;28;20337;-69
2021/07/18 07:12:07;;;;;;;19.85;12.80;;;;;;;17.07;100.00;100980.47;5015135;28;20431;-75
2021/07/18 07:14:34;;;;;;;19.70;11.70;;;;;;;17.05;100.00;100985.13;5015095;28;20053;-72
2021/07/18 07:17:01;;;;;;;18.20;11.70;;;;;;;17.06;100.00;100981.47;5015010;28;20050;-71
2021/07/18 07:19:28;;;;;;;19.92;11.52;;;;;;;17.17;100.00;100994.13;5013542;28;20053;-71
2021/07/18 07:21:54;;;;;;;16.38;10.35;;;;;;;17.17;100.00;100989.59;5015183;28;20054;-71
2021/07/18 07:24:21;;;;;;;12.52;8.65;;;;;;;17.23;100.00;100991.81;5015339;28;20054;-71
2021/07/18 07:26:47;;;;;;;11.90;8.32;;;;;;;17.31;100.00;100991.25;5046911;28;20054;-74
2021/07/18 07:29:14;;;;;;;14.95;8.85;;;;;;;17.37;100.00;100988.06;5015520;28;20062;-75
2021/07/18 07:31:41;;;;;;;13.43;9.07;;;;;;;17.47;100.00;100988.22;5015210;28;20054;-74
2021/07/18 07:34:07;;;;;;;17.15;9.40;;;;;;;17.41;100.00;100985.13;5015171;28;20077;-71
2021/07/18 07:36:34;;;;;;;12.43;8.80;;;;;;;17.43;98.16;100991.28;5014961;28;20352;-74
2021/07/18 07:39:01;;;;;;;13.43;8.48;;;;;;;17.50;99.26;100979.03;5015437;28;20213;-73
2021/07/18 07:41:28;;;;;;;15.88;8.35;;;;;;;17.51;100.00;100981.63;5016903;28;20056;-72
2021/07/18 07:43:57;;;;;;;13.35;8.38;;;;;;;17.62;100.00;100988.00;5016724;28;20057;-73
2021/07/18 07:46:25;;;;;;;12.15;6.43;;;;;;;17.67;97.86;100977.72;5014929;28;20046;-73
2021/07/18 07:48:52;;;;;;;14.60;7.43;;;;;;;17.67;98.55;100977.72;5014501;28;20057;-72
2021/07/18 07:51:19;;;;;;;10.35;7.55;;;;;;;17.71;99.62;100975.66;5015190;28;20058;-73
2021/07/18 07:53:46;;;;;;;11.15;6.15;;;;;;;17.78;99.38;100976.88;5014206;28;20124;-69
2021/07/18 07:56:13;;;;;;;10.75;5.25;;;;;;;17.87;95.43;100975.31;5015274;28;20054;-68
2021/07/18 07:58:40;;;;;;;11.65;6.10;;;;;;;17.91;91.70;100976.75;5047054;28;20053;-67
2021/07/18 08:01:06;;;;;;;9.15;5.38;;;;;;;17.88;92.73;100977.84;5015280;28;20050;-68
2021/07/18 08:03:33;;;;;;;12.15;6.22;;;;;;;17.97;94.20;100978.13;5015316;28;20190;-67
2021/07/18 08:06:00;;;;;;;10.27;5.00;;;;;;;18.25;91.62;100971.38;5015260;28;20046;-67
2021/07/18 08:08:27;;;;;;;10.75;5.25;;;;;;;18.27;92.62;100979.38;5013896;28;20080;-69
2021/07/18 08:11:06;;;;;;;8.60;5.05;;;;;;;18.25;95.09;100976.78;5017890;28;20081;-68
2021/07/18 08:13:33;;;;;;;9.02;4.22;;;;;;;18.32;91.92;100975.31;5018947;28;20056;-68
2021/07/18 08:16:00;;;;;;;10.60;5.50;;;;;;;18.44;89.57;100978.00;5050509;28;20167;-70
2021/07/18 08:18:27;;;;;;;9.45;5.57;;;;;;;18.44;90.47;100972.59;5018310;28;20049;-74
2021/07/18 08:20:53;;;;;;;7.72;4.65;;;;;;;18.48;91.27;100974.06;5019475;28;20100;-69
2021/07/18 08:23:20;;;;;;;7.30;4.07;;;;;;;18.58;90.62;100972.31;5018670;28;20390;-70
2021/07/18 08:25:47;;;;;;;8.75;4.32;;;;;;;18.64;87.14;100962.00;5018556;28;20064;-71
2021/07/18 08:28:14;;;;;;;6.50;3.92;;;;;;;18.69;87.66;100966.03;5018237;28;20076;-70
2021/07/18 08:30:42;;;;;;;9.30;4.05;;;;;;;18.73;89.55;100956.69;5018428;28;20046;-73
2021/07/18 08:33:09;;;;;;;7.72;3.55;;;;;;;18.89;86.54;100957.25;5018168;28;20046;-73
2021/07/18 08:35:36;;;;;;;7.07;3.15;;;;;;;18.83;88.71;100955.91;5012614;28;20081;-75
2021/07/18 08:38:03;;;;;;;7.05;3.28;;;;;;;18.97;85.09;100962.88;5018035;28;20046;-75
2021/07/18 08:40:34;;;;;;;5.55;3.53;;;;;;;18.97;85.70;100944.78;5016934;28;20380;-76
2021/07/18 08:43:01;;;;;;;7.90;3.17;;;;;;;19.04;88.14;100956.00;5013624;28;20364;-75
2021/07/18 08:45:28;;;;;;;7.28;3.90;;;;;;;19.07;86.68;100957.59;5017607;28;20038;-76
2021/07/18 08:47:55;;;;;;;5.22;2.67;;;;;;;19.08;85.53;100959.28;5011953;28;20153;-76
2021/07/18 08:50:23;;;;;;;8.57;3.40;;;;;;;19.17;86.13;100958.50;5017568;28;20046;-75
2021/07/18 08:52:55;;;;;;;6.57;3.22;;;;;;;19.42;83.63;100953.69;5017780;28;20050;-78
2021/07/18 08:55:23;;;;;;;4.53;3.45;;;;;;;19.52;80.84;100967.31;5012589;28;20096;-74
2021/07/18 08:57:51;;;;;;;5.75;3.58;;;;;;;19.72;80.45;100952.00;5016724;28;20440;-68
2021/07/18 09:00:18;;;;;;;5.32;3.55;;;;;;;19.71;82.46;100965.72;5049256;28;20123;-68
2021/07/18 09:02:45;;;;;;;7.18;3.30;;;;;;;19.62;83.35;100968.22;5017727;28;20057;-68
2021/07/18 09:05:12;;;;;;;7.13;3.10;;;;;;;19.64;82.40;100965.38;5017615;28;20050;-71
2021/07/18 09:07:57;;;;;;;7.28;3.15;;;;;;;19.82;80.94;100962.91;5017583;28;20399;-68
2021/07/18 09:10:28;;;;;;;6.05;2.63;;;;;;;20.01;78.36;100956.78;5017747;28;20053;-68
2021/07/18 09:13:04;;;;;;;6.10;3.22;;;;;;;20.06;82.21;100959.06;5017412;28;20513;-68
2021/07/18 09:15:42;;;;;;;7.47;2.70;;;;;;;20.05;81.29;100957.34;5017690;28;20096;-68
2021/07/18 09:18:13;;;;;;;5.10;2.60;;;;;;;20.10;81.84;100957.78;5017598;28;20050;-66
2021/07/18 09:20:45;;;;;;;4.38;2.63;;;;;;;20.10;80.10;100955.06;5017508;28;20050;-69
2021/07/18 09:23:20;;;;;;;3.65;2.47;;;;;;;20.14;80.08;100945.69;5016836;28;20061;-68
2021/07/18 09:25:48;;;;;;;4.47;2.17;;;;;;;20.18;78.80;100949.84;5017147;28;20096;-68
2021/07/18 09:28:17;;;;;;;6.07;2.80;;;;;;;20.29;78.03;100956.13;5016353;28;20103;-67
2021/07/18 09:30:46;;;;;;;4.40;2.38;;;;;;;20.50;77.62;100956.06;5017166;28;20058;-67
2021/07/18 09:33:21;;;;;;;5.82;2.30;;;;;;;20.55;75.07;100952.94;5016935;28;20466;-67
2021/07/18 09:35:49;;;;;;;3.63;2.33;;;;;;;20.58;80.72;100944.50;5017238;28;20046;-67
2021/07/18 09:38:23;;;;;;;4.28;2.67;;;;;;;20.66;75.20;100947.38;5016826;28;20077;-66
2021/07/18 09:40:59;;;;;;;5.10;2.35;;;;;;;20.79;77.04;100947.09;5016948;28;20053;-66
2021/07/18 09:43:29;;;;;;;3.15;2.13;;;;;;;20.84;74.74;100941.28;5016893;28;20053;-68
2021/07/18 09:46:06;;;;;;;7.35;2.72;;;;;;;21.01;74.46;100937.00;5016832;28;20081;-67
2021/07/18 09:48:36;;;;;;;3.38;2.33;;;;;;;21.16;74.97;100934.72;5016401;28;20050;-67
2021/07/18 09:51:16;;;;;;;5.78;2.80;;;;;;;21.12;77.32;100925.13;5016031;28;20359;-68
2021/07/18 09:53:43;;;;;;;4.88;2.95;;;;;;;21.29;76.07;100939.81;5016616;28;20364;-67
2021/07/18 09:56:16;;;;;;;4.72;3.47;;;;;;;21.52;73.57;100937.63;5015826;28;20046;-67
2021/07/18 09:58:57;;;;;;;6.88;3.38;;;;;;;21.72;71.08;100940.34;5016631;28;20496;-71
2021/07/18 10:01:25;;;;;;;7.22;3.45;;;;;;;21.74;74.35;100938.34;5016033;28;20061;-67
2021/07/18 10:03:54;;;;;;;5.07;2.92;;;;;;;21.69;76.07;100935.22;5016012;28;20060;-68
2021/07/18 10:06:31;;;;;;;4.80;3.30;;;;;;;21.75;75.63;100928.31;5015751;28;20072;-67
2021/07/18 10:09:04;;;;;;;5.80;3.55;;;;;;;21.80;75.28;100929.56;5012289;28;20045;-70
2021/07/18 10:11:32;;;;;;;5.65;3.55;;;;;;;21.82;74.55;100932.16;5015899;28;20046;-70
2021/07/18 10:13:59;;;;;;;5.95;3.13;;;;;;;21.86;74.96;100927.28;5015904;28;20104;-69
2021/07/18 10:16:29;;;;;;;6.00;3.50;;;;;;;21.88;73.63;100907.09;5015812;28;20045;-72
2021/07/18 10:18:56;;;;;;;6.40;4.15;;;;;;;22.17;70.83;100918.84;5042811;28;20050;-72
2021/07/18 10:21:26;;;;;;;7.00;3.53;;;;;;;22.23;71.34;100913.66;5015759;28;20046;-70
2021/07/18 10:23:54;;;;;;;4.00;2.90;;;;;;;22.36;72.40;100915.16;5015674;28;20497;-71
2021/07/18 10:26:24;;;;;;;4.80;3.40;;;;;;;22.43;67.58;100918.97;5016421;28;20053;-70
2021/07/18 10:28:52;;;;;;;;;;;;;;;22.43;68.49;100916.25;5016824;28;20050;-70
2021/07/18 10:31:23;;;;;;;4.95;3.38;;;;;;;22.39;72.30;100912.97;5015812;28;19921;-70
2021/07/18 10:33:53;;;;;;;5.25;3.15;;;;;;;22.38;72.03;100902.25;5015948;28;20351;-70
2021/07/18 10:36:22;;;;;;;3.47;2.58;;;;;;;22.59;72.24;100917.44;5015959;28;20046;-73
2021/07/18 10:38:49;;;;;;;2.65;2.25;;;;;;;22.64;68.23;100912.41;5016032;28;20100;-69
2021/07/18 10:41:17;;;;;;;4.95;2.25;;;;;;;22.68;68.62;100907.50;5016101;28;20049;-70
2021/07/18 10:43:50;;;;;;;9.18;2.63;;;;;;;22.76;69.51;100911.19;5015806;28;20111;-71
2021/07/18 10:46:42;;;;;;;5.03;2.45;;;;;;;22.96;68.13;100908.28;5015961;28;20494;-71
2021/07/18 10:49:14;;;;;;;3.88;2.20;;;;;;;23.03;71.68;100913.94;5015755;28;20054;-74
2021/07/18 10:51:51;;;;;;;4.18;2.10;;;;;;;23.05;66.54;100911.94;5015857;28;20379;-73
2021/07/18 10:54:20;;;;;;;2.42;1.80;;;;;;;23.18;68.90;100908.78;5015182;28;20061;-70
2021/07/18 10:56:50;;;;;;;4.25;2.15;;;;;;;23.15;67.38;100906.41;5018565;28;20057;-75
2021/07/18 10:59:37;;;;;;;5.80;2.30;;;;;;;23.12;67.80;100898.53;5019603;28;20502;-76
2021/07/18 11:02:09;;;;;;;8.57;2.17;;;;;;;23.32;66.94;100908.25;5016031;28;20107;-70
2021/07/18 11:04:48;;;;;;;4.10;2.20;;;;;;;23.50;66.73;100901.91;5015402;28;20053;-69
2021/07/18 11:07:21;;;;;;;3.28;2.22;;;;;;;23.62;67.21;100910.66;5015595;28;20057;-68
2021/07/18 11:10:01;;;;;;;4.07;2.05;;;;;;;23.71;65.93;100906.94;5009639;28;20088;-71
2021/07/18 11:12:34;;;;;;;5.05;2.13;;;;;;;23.91;65.68;100903.97;5010029;28;20446;-70
2021/07/18 11:15:20;;;;;;;3.47;2.13;;;;;;;23.92;62.01;100902.13;5015140;28;20057;-74
2021/07/18 11:17:59;;;;;;;8.00;2.65;;;;;;;23.86;64.18;100898.19;5015532;28;20107;-68
2021/07/18 11:20:46;;;;;;;4.55;2.78;;;;;;;23.91;65.12;100898.53;5015512;28;20151;-71
2021/07/18 11:23:17;;;;;;;3.25;2.22;;;;;;;23.88;66.45;100893.41;5015440;28;20375;-68